Terminal Aerodrome Forecast
Issued by NWS

Home | Current Version | Previous Version | Text Only | Print | Product List | Glossary Off
Versions: 1 2 3 4 5 6 7 8 9 10 11 12 13 14 15 16

963
FTUS43 KMPX 270859 AAA
TAFAXN
TAF AMD
KAXN 270859Z 2709/2806 10004KT P6SM OVC050
     FM271700 16009KT P6SM BKN090
     FM280500 12006KT P6SM SCT008 OVC070=

USA.gov is the U.S. government's official web portal to all federal, state and local government web resources and services.